sensor_id;sensor_type;location;lat;lon;timestamp;P1;durP1;ratioP1;P2;durP2;ratioP2
351;SDS011;164;50.784;6.496;2023-12-04T00:01:20;5.80;;;3.63;;
351;SDS011;164;50.784;6.496;2023-12-04T00:03:48;3.50;;;3.25;;
351;SDS011;164;50.784;6.496;2023-12-04T00:06:16;5.18;;;4.03;;
351;SDS011;164;50.784;6.496;2023-12-04T00:08:45;6.60;;;4.13;;
351;SDS011;164;50.784;6.496;2023-12-04T00:11:12;6.97;;;5.03;;
351;SDS011;164;50.784;6.496;2023-12-04T00:13:39;4.50;;;3.70;;
351;SDS011;164;50.784;6.496;2023-12-04T00:16:07;4.85;;;3.85;;
351;SDS011;164;50.784;6.496;2023-12-04T00:18:34;4.68;;;4.30;;
351;SDS011;164;50.784;6.496;2023-12-04T00:21:01;6.95;;;4.43;;
351;SDS011;164;50.784;6.496;2023-12-04T00:23:30;5.25;;;4.18;;
351;SDS011;164;50.784;6.496;2023-12-04T00:25:58;6.22;;;4.03;;
351;SDS011;164;50.784;6.496;2023-12-04T00:28:25;6.10;;;3.90;;
351;SDS011;164;50.784;6.496;2023-12-04T00:30:53;5.75;;;3.97;;
351;SDS011;164;50.784;6.496;2023-12-04T00:33:21;5.13;;;3.90;;
351;SDS011;164;50.784;6.496;2023-12-04T00:35:48;6.15;;;3.80;;
351;SDS011;164;50.784;6.496;2023-12-04T00:38:15;4.50;;;3.33;;
351;SDS011;164;50.784;6.496;2023-12-04T00:40:44;4.97;;;3.45;;
351;SDS011;164;50.784;6.496;2023-12-04T00:43:11;6.55;;;5.35;;
351;SDS011;164;50.784;6.496;2023-12-04T00:45:38;3.47;;;2.88;;
351;SDS011;164;50.784;6.496;2023-12-04T00:48:05;7.00;;;4.28;;
351;SDS011;164;50.784;6.496;2023-12-04T00:50:32;3.13;;;2.80;;
351;SDS011;164;50.784;6.496;2023-12-04T00:53:02;3.88;;;2.70;;
351;SDS011;164;50.784;6.496;2023-12-04T00:55:29;4.25;;;3.00;;
351;SDS011;164;50.784;6.496;2023-12-04T00:57:58;3.75;;;2.67;;
351;SDS011;164;50.784;6.496;2023-12-04T01:00:26;4.60;;;3.38;;
351;SDS011;164;50.784;6.496;2023-12-04T01:02:54;3.58;;;3.38;;
351;SDS011;164;50.784;6.496;2023-12-04T01:05:21;4.65;;;3.80;;
351;SDS011;164;50.784;6.496;2023-12-04T01:07:48;4.47;;;3.83;;
351;SDS011;164;50.784;6.496;2023-12-04T01:10:17;4.13;;;3.30;;
351;SDS011;164;50.784;6.496;2023-12-04T01:12:45;3.90;;;2.70;;
351;SDS011;164;50.784;6.496;2023-12-04T01:15:13;6.13;;;2.97;;
351;SDS011;164;50.784;6.496;2023-12-04T01:17:41;5.70;;;3.50;;
351;SDS011;164;50.784;6.496;2023-12-04T01:20:15;5.20;;;3.97;;
351;SDS011;164;50.784;6.496;2023-12-04T01:22:42;6.45;;;4.30;;
351;SDS011;164;50.784;6.496;2023-12-04T01:25:10;4.63;;;3.72;;
351;SDS011;164;50.784;6.496;2023-12-04T01:27:37;4.07;;;3.30;;
351;SDS011;164;50.784;6.496;2023-12-04T01:30:11;6.68;;;4.80;;
351;SDS011;164;50.784;6.496;2023-12-04T01:32:40;4.53;;;3.90;;
351;SDS011;164;50.784;6.496;2023-12-04T01:35:08;6.82;;;5.10;;
351;SDS011;164;50.784;6.496;2023-12-04T01:37:36;6.70;;;4.25;;
351;SDS011;164;50.784;6.496;2023-12-04T01:40:04;5.45;;;3.35;;
351;SDS011;164;50.784;6.496;2023-12-04T01:42:32;7.05;;;4.43;;
351;SDS011;164;50.784;6.496;2023-12-04T01:45:00;5.15;;;4.70;;
351;SDS011;164;50.784;6.496;2023-12-04T01:47:27;8.45;;;5.20;;
351;SDS011;164;50.784;6.496;2023-12-04T01:49:56;7.30;;;5.50;;
351;SDS011;164;50.784;6.496;2023-12-04T01:52:23;6.88;;;4.43;;
351;SDS011;164;50.784;6.496;2023-12-04T01:54:50;9.77;;;4.95;;
351;SDS011;164;50.784;6.496;2023-12-04T01:57:18;5.95;;;4.47;;
351;SDS011;164;50.784;6.496;2023-12-04T01:59:46;7.28;;;5.30;;
351;SDS011;164;50.784;6.496;2023-12-04T02:02:14;5.38;;;4.85;;
351;SDS011;164;50.784;6.496;2023-12-04T02:04:41;7.03;;;5.40;;
351;SDS011;164;50.784;6.496;2023-12-04T02:07:10;7.75;;;4.32;;
351;SDS011;164;50.784;6.496;2023-12-04T02:09:37;5.43;;;4.43;;
351;SDS011;164;50.784;6.496;2023-12-04T02:12:07;6.28;;;4.32;;
351;SDS011;164;50.784;6.496;2023-12-04T02:14:34;7.95;;;5.10;;
351;SDS011;164;50.784;6.496;2023-12-04T02:17:01;6.57;;;5.22;;
351;SDS011;164;50.784;6.496;2023-12-04T02:19:30;5.85;;;4.10;;
351;SDS011;164;50.784;6.496;2023-12-04T02:21:59;4.05;;;3.40;;
351;SDS011;164;50.784;6.496;2023-12-04T02:24:28;5.18;;;3.88;;
351;SDS011;164;50.784;6.496;2023-12-04T02:26:58;4.88;;;3.80;;
351;SDS011;164;50.784;6.496;2023-12-04T02:29:26;6.00;;;4.45;;
351;SDS011;164;50.784;6.496;2023-12-04T02:31:55;7.35;;;4.65;;
351;SDS011;164;50.784;6.496;2023-12-04T02:34:23;5.82;;;4.57;;
351;SDS011;164;50.784;6.496;2023-12-04T02:36:51;5.93;;;4.30;;
351;SDS011;164;50.784;6.496;2023-12-04T02:39:20;6.00;;;5.00;;
351;SDS011;164;50.784;6.496;2023-12-04T02:41:49;5.80;;;4.88;;
351;SDS011;164;50.784;6.496;2023-12-04T02:44:17;5.28;;;4.38;;
351;SDS011;164;50.784;6.496;2023-12-04T02:46:48;4.65;;;4.15;;
351;SDS011;164;50.784;6.496;2023-12-04T02:49:15;6.40;;;4.10;;
351;SDS011;164;50.784;6.496;2023-12-04T02:51:42;4.28;;;3.47;;
351;SDS011;164;50.784;6.496;2023-12-04T02:54:09;6.00;;;4.57;;
351;SDS011;164;50.784;6.496;2023-12-04T02:56:38;5.75;;;3.67;;
351;SDS011;164;50.784;6.496;2023-12-04T02:59:06;4.85;;;3.97;;
351;SDS011;164;50.784;6.496;2023-12-04T03:01:33;4.10;;;3.80;;
351;SDS011;164;50.784;6.496;2023-12-04T03:04:01;4.97;;;4.15;;
351;SDS011;164;50.784;6.496;2023-12-04T03:06:28;4.80;;;4.50;;
351;SDS011;164;50.784;6.496;2023-12-04T03:08:56;5.95;;;4.38;;
351;SDS011;164;50.784;6.496;2023-12-04T03:11:24;4.32;;;4.05;;
351;SDS011;164;50.784;6.496;2023-12-04T03:13:51;4.57;;;3.85;;
351;SDS011;164;50.784;6.496;2023-12-04T03:16:20;7.10;;;4.13;;
351;SDS011;164;50.784;6.496;2023-12-04T03:18:47;7.72;;;3.67;;
351;SDS011;164;50.784;6.496;2023-12-04T03:21:14;4.05;;;3.25;;
351;SDS011;164;50.784;6.496;2023-12-04T03:23:47;2.85;;;2.55;;
351;SDS011;164;50.784;6.496;2023-12-04T03:26:15;3.35;;;3.13;;
351;SDS011;164;50.784;6.496;2023-12-04T03:28:42;3.28;;;2.75;;
351;SDS011;164;50.784;6.496;2023-12-04T03:31:09;4.20;;;3.15;;
351;SDS011;164;50.784;6.496;2023-12-04T03:33:38;5.72;;;4.40;;
351;SDS011;164;50.784;6.496;2023-12-04T03:36:05;7.10;;;4.00;;
351;SDS011;164;50.784;6.496;2023-12-04T03:38:33;3.47;;;2.97;;
351;SDS011;164;50.784;6.496;2023-12-04T03:41:01;4.10;;;3.42;;
351;SDS011;164;50.784;6.496;2023-12-04T03:43:29;4.72;;;3.75;;
351;SDS011;164;50.784;6.496;2023-12-04T03:45:56;3.25;;;2.95;;
351;SDS011;164;50.784;6.496;2023-12-04T03:48:23;3.35;;;2.92;;
351;SDS011;164;50.784;6.496;2023-12-04T03:50:52;4.20;;;2.80;;
351;SDS011;164;50.784;6.496;2023-12-04T03:53:19;4.20;;;3.15;;
351;SDS011;164;50.784;6.496;2023-12-04T03:55:46;3.00;;;2.83;;
351;SDS011;164;50.784;6.496;2023-12-04T03:58:14;3.75;;;3.45;;
351;SDS011;164;50.784;6.496;2023-12-04T04:00:41;5.22;;;3.08;;
351;SDS011;164;50.784;6.496;2023-12-04T04:03:08;3.25;;;3.00;;
351;SDS011;164;50.784;6.496;2023-12-04T04:05:35;3.45;;;2.30;;
351;SDS011;164;50.784;6.496;2023-12-04T04:08:04;3.95;;;2.75;;
351;SDS011;164;50.784;6.496;2023-12-04T04:10:32;3.00;;;2.45;;
351;SDS011;164;50.784;6.496;2023-12-04T04:13:00;2.67;;;2.30;;
351;SDS011;164;50.784;6.496;2023-12-04T04:15:27;3.75;;;3.22;;
351;SDS011;164;50.784;6.496;2023-12-04T04:17:54;2.20;;;1.98;;
351;SDS011;164;50.784;6.496;2023-12-04T04:20:22;3.30;;;2.80;;
351;SDS011;164;50.784;6.496;2023-12-04T04:22:49;2.70;;;2.50;;
351;SDS011;164;50.784;6.496;2023-12-04T04:25:18;3.60;;;3.00;;
351;SDS011;164;50.784;6.496;2023-12-04T04:27:46;2.60;;;2.22;;
351;SDS011;164;50.784;6.496;2023-12-04T04:30:14;2.65;;;2.45;;
351;SDS011;164;50.784;6.496;2023-12-04T04:32:42;2.63;;;2.45;;
351;SDS011;164;50.784;6.496;2023-12-04T04:35:10;2.53;;;2.00;;
351;SDS011;164;50.784;6.496;2023-12-04T04:37:37;2.45;;;2.03;;
351;SDS011;164;50.784;6.496;2023-12-04T04:40:04;2.90;;;2.35;;
351;SDS011;164;50.784;6.496;2023-12-04T04:42:33;3.53;;;2.80;;
351;SDS011;164;50.784;6.496;2023-12-04T04:45:02;2.40;;;1.90;;
351;SDS011;164;50.784;6.496;2023-12-04T04:47:29;3.10;;;2.05;;
351;SDS011;164;50.784;6.496;2023-12-04T04:49:56;3.53;;;2.53;;
351;SDS011;164;50.784;6.496;2023-12-04T04:52:24;2.40;;;2.05;;
351;SDS011;164;50.784;6.496;2023-12-04T04:54:51;3.53;;;2.22;;
351;SDS011;164;50.784;6.496;2023-12-04T04:57:18;3.13;;;2.58;;
351;SDS011;164;50.784;6.496;2023-12-04T04:59:47;2.33;;;2.13;;
351;SDS011;164;50.784;6.496;2023-12-04T05:02:14;2.42;;;2.20;;
351;SDS011;164;50.784;6.496;2023-12-04T05:04:43;2.55;;;2.03;;
351;SDS011;164;50.784;6.496;2023-12-04T05:07:10;2.83;;;2.03;;
351;SDS011;164;50.784;6.496;2023-12-04T05:09:37;1.98;;;1.88;;
351;SDS011;164;50.784;6.496;2023-12-04T05:12:05;1.75;;;1.70;;
351;SDS011;164;50.784;6.496;2023-12-04T05:14:32;1.42;;;1.40;;
351;SDS011;164;50.784;6.496;2023-12-04T05:17:01;2.25;;;2.10;;
351;SDS011;164;50.784;6.496;2023-12-04T05:19:28;2.63;;;2.03;;
351;SDS011;164;50.784;6.496;2023-12-04T05:21:56;2.70;;;2.30;;
351;SDS011;164;50.784;6.496;2023-12-04T05:24:23;2.67;;;1.80;;
351;SDS011;164;50.784;6.496;2023-12-04T05:26:50;2.40;;;2.17;;
351;SDS011;164;50.784;6.496;2023-12-04T05:29:17;2.42;;;2.22;;
351;SDS011;164;50.784;6.496;2023-12-04T05:31:44;3.00;;;2.60;;
351;SDS011;164;50.784;6.496;2023-12-04T05:34:13;2.05;;;1.95;;
351;SDS011;164;50.784;6.496;2023-12-04T05:36:40;1.73;;;1.45;;
351;SDS011;164;50.784;6.496;2023-12-04T05:39:08;3.08;;;1.80;;
351;SDS011;164;50.784;6.496;2023-12-04T05:41:35;2.28;;;1.92;;
351;SDS011;164;50.784;6.496;2023-12-04T05:44:02;3.38;;;2.05;;
351;SDS011;164;50.784;6.496;2023-12-04T05:46:30;2.17;;;1.60;;
351;SDS011;164;50.784;6.496;2023-12-04T05:48:57;2.22;;;1.70;;
351;SDS011;164;50.784;6.496;2023-12-04T05:51:26;2.63;;;2.22;;
351;SDS011;164;50.784;6.496;2023-12-04T05:53:53;1.85;;;1.75;;
351;SDS011;164;50.784;6.496;2023-12-04T05:56:21;1.33;;;1.23;;
351;SDS011;164;50.784;6.496;2023-12-04T05:58:48;1.98;;;1.67;;
351;SDS011;164;50.784;6.496;2023-12-04T06:01:15;2.75;;;2.10;;
351;SDS011;164;50.784;6.496;2023-12-04T06:03:43;2.25;;;1.45;;
351;SDS011;164;50.784;6.496;2023-12-04T06:06:10;1.60;;;1.60;;
351;SDS011;164;50.784;6.496;2023-12-04T06:08:39;2.72;;;1.60;;
351;SDS011;164;50.784;6.496;2023-12-04T06:11:06;1.25;;;1.10;;
351;SDS011;164;50.784;6.496;2023-12-04T06:13:33;1.30;;;1.20;;
351;SDS011;164;50.784;6.496;2023-12-04T06:16:01;1.55;;;1.50;;
351;SDS011;164;50.784;6.496;2023-12-04T06:18:28;1.30;;;1.17;;
351;SDS011;164;50.784;6.496;2023-12-04T06:20:55;2.50;;;1.70;;
351;SDS011;164;50.784;6.496;2023-12-04T06:23:23;1.25;;;1.20;;
351;SDS011;164;50.784;6.496;2023-12-04T06:25:52;2.45;;;1.40;;
351;SDS011;164;50.784;6.496;2023-12-04T06:28:19;1.50;;;1.17;;
351;SDS011;164;50.784;6.496;2023-12-04T06:30:47;1.63;;;1.15;;
351;SDS011;164;50.784;6.496;2023-12-04T06:33:15;1.83;;;1.27;;
351;SDS011;164;50.784;6.496;2023-12-04T06:35:43;1.77;;;1.30;;
351;SDS011;164;50.784;6.496;2023-12-04T06:38:11;2.00;;;1.92;;
351;SDS011;164;50.784;6.496;2023-12-04T06:40:41;1.98;;;1.88;;
351;SDS011;164;50.784;6.496;2023-12-04T06:43:10;2.10;;;1.60;;
351;SDS011;164;50.784;6.496;2023-12-04T06:45:38;1.85;;;1.83;;
351;SDS011;164;50.784;6.496;2023-12-04T06:48:06;2.50;;;2.38;;
351;SDS011;164;50.784;6.496;2023-12-04T06:50:33;4.72;;;3.92;;
351;SDS011;164;50.784;6.496;2023-12-04T06:53:00;7.00;;;4.97;;
351;SDS011;164;50.784;6.496;2023-12-04T06:55:28;5.72;;;4.60;;
351;SDS011;164;50.784;6.496;2023-12-04T06:57:55;7.47;;;4.60;;
351;SDS011;164;50.784;6.496;2023-12-04T07:00:24;5.10;;;3.60;;
351;SDS011;164;50.784;6.496;2023-12-04T07:02:51;6.15;;;4.50;;
351;SDS011;164;50.784;6.496;2023-12-04T07:05:19;6.45;;;5.15;;
351;SDS011;164;50.784;6.496;2023-12-04T07:07:47;4.60;;;4.30;;
351;SDS011;164;50.784;6.496;2023-12-04T07:10:13;6.75;;;4.80;;
351;SDS011;164;50.784;6.496;2023-12-04T07:12:40;6.10;;;4.55;;
351;SDS011;164;50.784;6.496;2023-12-04T07:15:08;7.82;;;6.50;;
351;SDS011;164;50.784;6.496;2023-12-04T07:17:37;7.13;;;4.28;;
351;SDS011;164;50.784;6.496;2023-12-04T07:20:05;6.95;;;5.15;;
351;SDS011;164;50.784;6.496;2023-12-04T07:22:32;7.90;;;5.93;;
351;SDS011;164;50.784;6.496;2023-12-04T07:25:00;6.60;;;6.10;;
351;SDS011;164;50.784;6.496;2023-12-04T07:27:27;9.65;;;7.10;;
351;SDS011;164;50.784;6.496;2023-12-04T07:29:54;7.72;;;5.47;;
351;SDS011;164;50.784;6.496;2023-12-04T07:32:22;10.15;;;6.65;;
351;SDS011;164;50.784;6.496;2023-12-04T07:34:50;6.10;;;5.38;;
351;SDS011;164;50.784;6.496;2023-12-04T07:37:18;7.32;;;5.60;;
351;SDS011;164;50.784;6.496;2023-12-04T07:39:45;6.25;;;5.43;;
351;SDS011;164;50.784;6.496;2023-12-04T07:42:12;8.23;;;7.35;;
351;SDS011;164;50.784;6.496;2023-12-04T07:44:39;10.27;;;7.43;;
351;SDS011;164;50.784;6.496;2023-12-04T07:47:06;7.38;;;6.03;;
351;SDS011;164;50.784;6.496;2023-12-04T07:49:34;8.85;;;6.72;;
351;SDS011;164;50.784;6.496;2023-12-04T07:52:02;5.60;;;5.20;;
351;SDS011;164;50.784;6.496;2023-12-04T07:54:30;7.38;;;5.95;;
351;SDS011;164;50.784;6.496;2023-12-04T07:56:57;7.93;;;6.50;;
351;SDS011;164;50.784;6.496;2023-12-04T07:59:25;9.43;;;5.40;;
351;SDS011;164;50.784;6.496;2023-12-04T08:01:52;7.25;;;6.78;;
351;SDS011;164;50.784;6.496;2023-12-04T08:04:19;7.78;;;5.82;;
351;SDS011;164;50.784;6.496;2023-12-04T08:06:46;7.15;;;5.28;;
351;SDS011;164;50.784;6.496;2023-12-04T08:09:15;5.30;;;4.65;;
351;SDS011;164;50.784;6.496;2023-12-04T08:11:42;8.23;;;5.75;;
351;SDS011;164;50.784;6.496;2023-12-04T08:14:09;7.07;;;5.43;;
351;SDS011;164;50.784;6.496;2023-12-04T08:16:37;5.32;;;5.03;;
351;SDS011;164;50.784;6.496;2023-12-04T08:19:04;6.90;;;5.72;;
351;SDS011;164;50.784;6.496;2023-12-04T08:21:31;6.95;;;5.68;;
351;SDS011;164;50.784;6.496;2023-12-04T08:23:58;6.65;;;4.68;;
351;SDS011;164;50.784;6.496;2023-12-04T08:26:27;5.55;;;4.65;;
351;SDS011;164;50.784;6.496;2023-12-04T08:28:54;7.38;;;4.50;;
351;SDS011;164;50.784;6.496;2023-12-04T08:31:21;4.53;;;4.15;;
351;SDS011;164;50.784;6.496;2023-12-04T08:33:48;5.00;;;3.67;;
351;SDS011;164;50.784;6.496;2023-12-04T08:36:16;4.63;;;4.22;;
351;SDS011;164;50.784;6.496;2023-12-04T08:38:43;7.47;;;4.10;;
351;SDS011;164;50.784;6.496;2023-12-04T08:41:10;4.35;;;3.42;;
351;SDS011;164;50.784;6.496;2023-12-04T08:43:39;4.03;;;3.25;;
351;SDS011;164;50.784;6.496;2023-12-04T08:46:06;2.53;;;2.15;;
351;SDS011;164;50.784;6.496;2023-12-04T08:48:33;1.83;;;1.60;;
351;SDS011;164;50.784;6.496;2023-12-04T08:51:01;2.67;;;2.53;;
351;SDS011;164;50.784;6.496;2023-12-04T08:53:28;3.10;;;2.70;;
351;SDS011;164;50.784;6.496;2023-12-04T08:55:55;3.78;;;2.92;;
351;SDS011;164;50.784;6.496;2023-12-04T08:58:23;2.60;;;2.45;;
351;SDS011;164;50.784;6.496;2023-12-04T09:00:52;3.83;;;3.15;;
351;SDS011;164;50.784;6.496;2023-12-04T09:03:19;3.47;;;2.80;;
351;SDS011;164;50.784;6.496;2023-12-04T09:05:47;4.03;;;3.00;;
351;SDS011;164;50.784;6.496;2023-12-04T09:08:16;3.67;;;2.60;;
351;SDS011;164;50.784;6.496;2023-12-04T09:10:44;3.40;;;2.95;;
351;SDS011;164;50.784;6.496;2023-12-04T09:13:12;3.97;;;2.80;;
351;SDS011;164;50.784;6.496;2023-12-04T09:15:39;4.50;;;2.67;;
351;SDS011;164;50.784;6.496;2023-12-04T09:18:08;5.15;;;3.10;;
351;SDS011;164;50.784;6.496;2023-12-04T09:20:35;4.50;;;4.25;;
351;SDS011;164;50.784;6.496;2023-12-04T09:23:02;3.75;;;3.40;;
351;SDS011;164;50.784;6.496;2023-12-04T09:25:30;3.78;;;2.78;;
351;SDS011;164;50.784;6.496;2023-12-04T09:27:57;2.40;;;2.20;;
351;SDS011;164;50.784;6.496;2023-12-04T09:30:25;2.75;;;2.47;;
351;SDS011;164;50.784;6.496;2023-12-04T09:32:52;3.38;;;2.85;;
351;SDS011;164;50.784;6.496;2023-12-04T09:35:21;3.67;;;2.50;;
351;SDS011;164;50.784;6.496;2023-12-04T09:37:48;3.72;;;2.55;;
351;SDS011;164;50.784;6.496;2023-12-04T09:40:16;2.15;;;1.90;;
351;SDS011;164;50.784;6.496;2023-12-04T09:42:43;3.08;;;2.88;;
351;SDS011;164;50.784;6.496;2023-12-04T09:45:10;2.42;;;2.25;;
351;SDS011;164;50.784;6.496;2023-12-04T09:47:38;2.80;;;2.60;;
351;SDS011;164;50.784;6.496;2023-12-04T09:50:06;2.42;;;2.15;;
351;SDS011;164;50.784;6.496;2023-12-04T09:52:35;2.17;;;1.90;;
351;SDS011;164;50.784;6.496;2023-12-04T09:55:02;2.15;;;2.03;;
351;SDS011;164;50.784;6.496;2023-12-04T09:57:30;2.78;;;1.90;;
351;SDS011;164;50.784;6.496;2023-12-04T09:59:58;2.33;;;1.90;;
351;SDS011;164;50.784;6.496;2023-12-04T10:02:27;2.05;;;1.95;;
351;SDS011;164;50.784;6.496;2023-12-04T10:04:55;1.98;;;1.77;;
351;SDS011;164;50.784;6.496;2023-12-04T10:07:22;2.88;;;1.95;;
351;SDS011;164;50.784;6.496;2023-12-04T10:09:51;2.53;;;2.00;;
351;SDS011;164;50.784;6.496;2023-12-04T10:12:19;2.70;;;2.10;;
351;SDS011;164;50.784;6.496;2023-12-04T10:14:50;2.67;;;1.95;;
351;SDS011;164;50.784;6.496;2023-12-04T10:17:32;3.05;;;2.15;;
351;SDS011;164;50.784;6.496;2023-12-04T10:20:03;2.05;;;1.88;;
351;SDS011;164;50.784;6.496;2023-12-04T10:22:35;3.10;;;2.10;;
351;SDS011;164;50.784;6.496;2023-12-04T10:25:14;1.85;;;1.60;;
351;SDS011;164;50.784;6.496;2023-12-04T10:27:43;2.80;;;1.85;;
351;SDS011;164;50.784;6.496;2023-12-04T10:30:20;1.50;;;1.40;;
351;SDS011;164;50.784;6.496;2023-12-04T10:32:48;1.95;;;1.90;;
351;SDS011;164;50.784;6.496;2023-12-04T10:35:15;2.55;;;1.70;;
351;SDS011;164;50.784;6.496;2023-12-04T10:37:43;3.15;;;1.85;;
351;SDS011;164;50.784;6.496;2023-12-04T10:40:10;2.08;;;1.92;;
351;SDS011;164;50.784;6.496;2023-12-04T10:42:40;1.98;;;1.85;;
351;SDS011;164;50.784;6.496;2023-12-04T10:45:08;1.88;;;1.77;;
351;SDS011;164;50.784;6.496;2023-12-04T10:47:35;2.42;;;2.20;;
351;SDS011;164;50.784;6.496;2023-12-04T10:50:03;2.67;;;2.25;;
351;SDS011;164;50.784;6.496;2023-12-04T10:52:32;3.00;;;2.50;;
351;SDS011;164;50.784;6.496;2023-12-04T10:55:00;4.90;;;2.30;;
351;SDS011;164;50.784;6.496;2023-12-04T10:57:30;2.72;;;2.22;;
351;SDS011;164;50.784;6.496;2023-12-04T11:00:01;2.42;;;2.08;;
351;SDS011;164;50.784;6.496;2023-12-04T11:02:32;4.90;;;2.40;;
351;SDS011;164;50.784;6.496;2023-12-04T11:05:01;2.40;;;1.95;;
351;SDS011;164;50.784;6.496;2023-12-04T11:07:33;2.47;;;2.25;;
351;SDS011;164;50.784;6.496;2023-12-04T11:10:02;2.53;;;2.30;;
351;SDS011;164;50.784;6.496;2023-12-04T11:12:29;3.33;;;3.10;;
351;SDS011;164;50.784;6.496;2023-12-04T11:14:59;3.03;;;2.88;;
351;SDS011;164;50.784;6.496;2023-12-04T11:17:31;4.03;;;3.45;;
351;SDS011;164;50.784;6.496;2023-12-04T11:20:02;2.72;;;2.38;;
351;SDS011;164;50.784;6.496;2023-12-04T11:22:33;2.38;;;2.20;;
351;SDS011;164;50.784;6.496;2023-12-04T11:25:04;3.60;;;2.60;;
351;SDS011;164;50.784;6.496;2023-12-04T11:27:33;3.05;;;2.53;;
351;SDS011;164;50.784;6.496;2023-12-04T11:30:01;4.63;;;2.88;;
351;SDS011;164;50.784;6.496;2023-12-04T11:32:29;4.10;;;3.05;;
351;SDS011;164;50.784;6.496;2023-12-04T11:34:59;2.78;;;2.25;;
351;SDS011;164;50.784;6.496;2023-12-04T11:37:27;2.40;;;2.17;;
351;SDS011;164;50.784;6.496;2023-12-04T11:39:54;2.92;;;2.72;;
351;SDS011;164;50.784;6.496;2023-12-04T11:42:24;4.53;;;3.85;;
351;SDS011;164;50.784;6.496;2023-12-04T11:44:55;5.22;;;3.70;;
351;SDS011;164;50.784;6.496;2023-12-04T11:47:22;3.78;;;2.95;;
351;SDS011;164;50.784;6.496;2023-12-04T11:49:50;4.93;;;3.40;;
351;SDS011;164;50.784;6.496;2023-12-04T11:52:19;4.65;;;3.53;;
351;SDS011;164;50.784;6.496;2023-12-04T11:54:59;4.38;;;3.22;;
351;SDS011;164;50.784;6.496;2023-12-04T11:57:31;3.25;;;3.05;;
351;SDS011;164;50.784;6.496;2023-12-04T12:00:09;4.38;;;3.72;;
351;SDS011;164;50.784;6.496;2023-12-04T12:02:37;4.25;;;3.60;;
351;SDS011;164;50.784;6.496;2023-12-04T12:05:05;3.75;;;3.40;;
351;SDS011;164;50.784;6.496;2023-12-04T12:07:34;3.28;;;2.83;;
351;SDS011;164;50.784;6.496;2023-12-04T12:10:02;3.45;;;3.08;;
351;SDS011;164;50.784;6.496;2023-12-04T12:12:30;4.28;;;3.15;;
351;SDS011;164;50.784;6.496;2023-12-04T12:14:58;8.30;;;4.35;;
351;SDS011;164;50.784;6.496;2023-12-04T12:17:25;2.85;;;2.65;;
351;SDS011;164;50.784;6.496;2023-12-04T12:19:53;4.22;;;3.30;;
351;SDS011;164;50.784;6.496;2023-12-04T12:22:22;3.90;;;3.47;;
351;SDS011;164;50.784;6.496;2023-12-04T12:24:51;4.07;;;3.42;;
351;SDS011;164;50.784;6.496;2023-12-04T12:27:18;4.70;;;4.15;;
351;SDS011;164;50.784;6.496;2023-12-04T12:29:46;5.95;;;4.90;;
351;SDS011;164;50.784;6.496;2023-12-04T12:32:13;8.02;;;6.35;;
351;SDS011;164;50.784;6.496;2023-12-04T12:34:41;6.68;;;5.45;;
351;SDS011;164;50.784;6.496;2023-12-04T12:37:08;12.32;;;6.68;;
351;SDS011;164;50.784;6.496;2023-12-04T12:39:35;7.07;;;5.25;;
351;SDS011;164;50.784;6.496;2023-12-04T12:42:04;8.05;;;5.30;;
351;SDS011;164;50.784;6.496;2023-12-04T12:44:38;8.13;;;6.00;;
351;SDS011;164;50.784;6.496;2023-12-04T12:47:07;7.53;;;6.25;;
351;SDS011;164;50.784;6.496;2023-12-04T12:49:35;6.00;;;5.65;;
351;SDS011;164;50.784;6.496;2023-12-04T12:52:04;7.43;;;6.03;;
351;SDS011;164;50.784;6.496;2023-12-04T12:54:33;6.78;;;6.38;;
351;SDS011;164;50.784;6.496;2023-12-04T12:57:01;7.47;;;6.00;;
351;SDS011;164;50.784;6.496;2023-12-04T12:59:30;9.35;;;5.93;;
351;SDS011;164;50.784;6.496;2023-12-04T13:01:58;7.15;;;5.82;;
351;SDS011;164;50.784;6.496;2023-12-04T13:04:26;7.40;;;6.00;;
351;SDS011;164;50.784;6.496;2023-12-04T13:06:53;7.57;;;6.38;;
351;SDS011;164;50.784;6.496;2023-12-04T13:09:20;7.03;;;6.28;;
351;SDS011;164;50.784;6.496;2023-12-04T13:11:47;6.43;;;5.60;;
351;SDS011;164;50.784;6.496;2023-12-04T13:14:16;6.63;;;5.65;;
351;SDS011;164;50.784;6.496;2023-12-04T13:16:45;7.95;;;7.22;;
351;SDS011;164;50.784;6.496;2023-12-04T13:19:12;8.38;;;6.35;;
351;SDS011;164;50.784;6.496;2023-12-04T13:21:42;7.80;;;5.85;;
351;SDS011;164;50.784;6.496;2023-12-04T13:24:10;6.18;;;4.93;;
351;SDS011;164;50.784;6.496;2023-12-04T13:26:37;7.03;;;5.63;;
351;SDS011;164;50.784;6.496;2023-12-04T13:29:05;8.20;;;7.78;;
351;SDS011;164;50.784;6.496;2023-12-04T13:31:33;7.90;;;6.60;;
351;SDS011;164;50.784;6.496;2023-12-04T13:34:02;5.20;;;4.80;;
351;SDS011;164;50.784;6.496;2023-12-04T13:36:32;7.57;;;6.85;;
351;SDS011;164;50.784;6.496;2023-12-04T13:38:59;5.40;;;4.90;;
351;SDS011;164;50.784;6.496;2023-12-04T13:41:26;9.07;;;6.55;;
351;SDS011;164;50.784;6.496;2023-12-04T13:44:11;5.95;;;5.65;;
351;SDS011;164;50.784;6.496;2023-12-04T13:46:40;7.63;;;5.97;;
351;SDS011;164;50.784;6.496;2023-12-04T13:49:08;7.22;;;6.10;;
351;SDS011;164;50.784;6.496;2023-12-04T13:51:36;7.90;;;6.40;;
351;SDS011;164;50.784;6.496;2023-12-04T13:54:05;7.25;;;5.38;;
351;SDS011;164;50.784;6.496;2023-12-04T13:56:45;6.70;;;6.30;;
351;SDS011;164;50.784;6.496;2023-12-04T13:59:19;5.78;;;5.43;;
351;SDS011;164;50.784;6.496;2023-12-04T14:01:47;6.32;;;5.57;;
351;SDS011;164;50.784;6.496;2023-12-04T14:04:17;6.50;;;5.53;;
351;SDS011;164;50.784;6.496;2023-12-04T14:06:44;6.00;;;5.60;;
351;SDS011;164;50.784;6.496;2023-12-04T14:09:12;8.32;;;6.95;;
351;SDS011;164;50.784;6.496;2023-12-04T14:11:41;9.40;;;6.45;;
351;SDS011;164;50.784;6.496;2023-12-04T14:14:10;6.53;;;5.45;;
351;SDS011;164;50.784;6.496;2023-12-04T14:16:38;6.55;;;5.20;;
351;SDS011;164;50.784;6.496;2023-12-04T14:19:06;6.10;;;5.78;;
351;SDS011;164;50.784;6.496;2023-12-04T14:21:34;6.28;;;5.60;;
351;SDS011;164;50.784;6.496;2023-12-04T14:24:01;6.15;;;5.80;;
351;SDS011;164;50.784;6.496;2023-12-04T14:26:29;6.53;;;6.13;;
351;SDS011;164;50.784;6.496;2023-12-04T14:28:56;6.35;;;5.55;;
351;SDS011;164;50.784;6.496;2023-12-04T14:31:28;6.30;;;5.10;;
351;SDS011;164;50.784;6.496;2023-12-04T14:33:56;7.00;;;5.93;;
351;SDS011;164;50.784;6.496;2023-12-04T14:36:23;5.50;;;5.18;;
351;SDS011;164;50.784;6.496;2023-12-04T14:38:53;5.60;;;5.28;;
351;SDS011;164;50.784;6.496;2023-12-04T14:41:20;6.03;;;5.32;;
351;SDS011;164;50.784;6.496;2023-12-04T14:43:47;7.53;;;5.85;;
351;SDS011;164;50.784;6.496;2023-12-04T14:46:14;6.88;;;6.00;;
351;SDS011;164;50.784;6.496;2023-12-04T14:48:42;6.22;;;4.50;;
351;SDS011;164;50.784;6.496;2023-12-04T14:51:10;5.88;;;5.07;;
351;SDS011;164;50.784;6.496;2023-12-04T14:53:37;6.85;;;5.68;;
351;SDS011;164;50.784;6.496;2023-12-04T14:56:13;5.85;;;4.90;;
351;SDS011;164;50.784;6.496;2023-12-04T14:58:48;5.85;;;5.22;;
351;SDS011;164;50.784;6.496;2023-12-04T15:01:32;5.47;;;5.22;;
351;SDS011;164;50.784;6.496;2023-12-04T15:04:13;7.60;;;4.95;;
351;SDS011;164;50.784;6.496;2023-12-04T15:06:54;6.13;;;5.82;;
351;SDS011;164;50.784;6.496;2023-12-04T15:09:53;4.18;;;3.80;;
351;SDS011;164;50.784;6.496;2023-12-04T15:12:40;5.45;;;5.15;;
351;SDS011;164;50.784;6.496;2023-12-04T15:15:32;6.38;;;4.82;;
351;SDS011;164;50.784;6.496;2023-12-04T15:18:14;5.38;;;5.13;;
351;SDS011;164;50.784;6.496;2023-12-04T15:21:01;5.53;;;4.90;;
351;SDS011;164;50.784;6.496;2023-12-04T15:23:28;5.72;;;5.03;;
351;SDS011;164;50.784;6.496;2023-12-04T15:25:55;5.53;;;5.07;;
351;SDS011;164;50.784;6.496;2023-12-04T15:28:22;8.50;;;6.15;;
351;SDS011;164;50.784;6.496;2023-12-04T15:30:49;5.85;;;5.20;;
351;SDS011;164;50.784;6.496;2023-12-04T15:33:16;5.40;;;5.10;;
351;SDS011;164;50.784;6.496;2023-12-04T15:35:45;7.00;;;5.95;;
351;SDS011;164;50.784;6.496;2023-12-04T15:38:12;5.90;;;5.45;;
351;SDS011;164;50.784;6.496;2023-12-04T15:40:39;6.70;;;6.32;;
351;SDS011;164;50.784;6.496;2023-12-04T15:43:05;5.63;;;5.28;;
351;SDS011;164;50.784;6.496;2023-12-04T15:45:34;5.97;;;4.93;;
351;SDS011;164;50.784;6.496;2023-12-04T15:48:01;13.15;;;10.88;;
351;SDS011;164;50.784;6.496;2023-12-04T15:50:27;7.07;;;6.60;;
351;SDS011;164;50.784;6.496;2023-12-04T15:52:56;5.97;;;5.68;;